Time;durP1;ratioP1;P1;durP2;ratioP2;P2;SDS_P1;SDS_P2;PMS_P1;PMS_P2;Temp;Humidity;BMP_temperature;BMP_pressure;BME280_temperature;BME280_humidity;BME280_pressure;Samples;Min_cycle;Max_cycle;Signal;HPM_P1;HPM_P2
2022/06/30 00:02:43;;;;;;;1.37;1.27;;;;;;;29.74;35.46;98688.73;1857137;75;28173;-50
2022/06/30 00:05:31;;;;;;;1.20;1.20;;;;;;;29.76;35.43;98683.75;1802732;78;28254;-47
2022/06/30 00:08:20;;;;;;;1.20;1.20;;;;;;;29.79;35.42;98681.77;1792538;79;28392;-48
2022/06/30 00:11:08;;;;;;;1.50;1.40;;;;;;;29.78;35.47;98675.16;1768326;80;28446;-51
2022/06/30 00:13:57;;;;;;;1.40;1.30;;;;;;;29.76;35.53;98675.44;1789835;79;28743;-50
2022/06/30 00:16:46;;;;;;;1.30;1.30;;;;;;;29.80;35.47;98672.31;1792645;79;28334;-51
2022/06/30 00:19:35;;;;;;;1.37;1.37;;;;;;;29.77;35.56;98667.97;1793104;79;28266;-49
2022/06/30 00:22:25;;;;;;;1.42;1.27;;;;;;;29.75;35.54;98661.33;1828352;75;28209;-52
2022/06/30 00:25:13;;;;;;;1.40;1.30;;;;;;;29.78;35.56;98664.09;1830659;75;30231;-49
2022/06/30 00:28:01;;;;;;;1.80;1.32;;;;;;;29.78;35.54;98664.09;1862388;76;28030;-49
2022/06/30 00:30:53;;;;;;;1.30;1.30;;;;;;;29.77;35.59;98659.66;1857334;76;28041;-49
2022/06/30 00:33:41;;;;;;;1.32;1.30;;;;;;;29.77;35.69;98652.18;1849376;76;28082;-46
2022/06/30 00:36:30;;;;;;;1.55;1.30;;;;;;;29.84;35.69;98652.61;1833348;77;28253;-47
2022/06/30 00:39:18;;;;;;;1.50;1.22;;;;;;;29.86;35.71;98650.92;1859367;76;28916;-45
2022/06/30 00:42:07;;;;;;;1.45;1.37;;;;;;;29.87;35.74;98651.19;1867671;74;28103;-49
2022/06/30 00:44:55;;;;;;;1.40;1.40;;;;;;;29.89;35.79;98648.94;1895756;74;28171;-48
2022/06/30 00:47:44;;;;;;;1.23;1.20;;;;;;;29.90;35.79;98652.78;1867363;76;28299;-46
2022/06/30 00:50:32;;;;;;;1.20;1.20;;;;;;;29.92;35.79;98649.14;1867182;76;28331;-49
2022/06/30 00:53:21;;;;;;;1.30;1.30;;;;;;;29.95;35.80;98651.31;1855127;76;28187;-50
2022/06/30 00:56:10;;;;;;;1.40;1.30;;;;;;;29.95;35.84;98646.33;1872810;75;28164;-48
2022/06/30 00:59:04;;;;;;;1.45;1.35;;;;;;;29.94;35.87;98644.11;1864629;75;28195;-48
2022/06/30 01:01:53;;;;;;;1.45;1.35;;;;;;;29.96;35.87;98646.59;1822701;75;28297;-48
2022/06/30 01:04:42;;;;;;;1.60;1.50;;;;;;;29.96;35.90;98647.42;1827995;75;28312;-51
2022/06/30 01:07:32;;;;;;;1.30;1.20;;;;;;;29.98;35.92;98647.94;1866500;75;28109;-47
2022/06/30 01:13:27;;;;;;;1.40;1.40;;;;;;;29.99;35.98;98639.08;1860580;75;28193;-47
2022/06/30 01:16:19;;;;;;;1.50;1.40;;;;;;;29.96;36.05;98636.91;1869627;75;28224;-50
2022/06/30 01:19:05;;;;;;;1.20;1.20;;;;;;;29.96;36.07;98633.58;1844201;75;28179;-47
2022/06/30 01:22:04;;;;;;;1.42;1.32;;;;;;;29.96;36.09;98643.27;1857323;75;28106;-51
2022/06/30 01:24:53;;;;;;;1.37;1.22;;;;;;;29.95;36.17;98640.23;1840331;76;28325;-51
2022/06/30 01:27:41;;;;;;;1.35;1.25;;;;;;;29.94;36.15;98644.70;1858777;76;38764;-46
2022/06/30 01:30:30;;;;;;;1.42;1.32;;;;;;;29.98;36.16;98629.11;1853429;75;28202;-48
2022/06/30 01:33:19;;;;;;;1.25;1.25;;;;;;;29.98;36.21;98627.73;1857905;75;28156;-48
2022/06/30 01:36:08;;;;;;;1.20;1.20;;;;;;;29.98;36.23;98627.17;1864367;75;28127;-48
2022/06/30 01:38:57;;;;;;;1.30;1.30;;;;;;;29.99;36.23;98629.38;1815993;77;28323;-47
2022/06/30 01:41:45;;;;;;;1.60;1.32;;;;;;;29.97;36.31;98633.82;1850501;75;28215;-48
2022/06/30 01:44:34;;;;;;;2.00;1.30;;;;;;;29.98;36.32;98631.33;1861133;76;28166;-50
2022/06/30 01:47:22;;;;;;;1.30;1.30;;;;;;;29.98;36.35;98624.95;1853255;75;28253;-48
2022/06/30 01:50:17;;;;;;;1.90;1.50;;;;;;;29.94;36.41;98628.87;1854400;75;28253;-47
2022/06/30 01:53:05;;;;;;;1.30;1.30;;;;;;;29.99;36.40;98630.77;1855800;75;28238;-49
2022/06/30 01:55:54;;;;;;;1.50;1.40;;;;;;;29.96;36.47;98632.75;1860701;75;28274;-47
2022/06/30 01:58:42;;;;;;;1.40;1.30;;;;;;;29.96;36.50;98643.27;1870423;75;28263;-46
2022/06/30 02:01:31;;;;;;;1.10;1.10;;;;;;;29.98;36.47;98641.57;1866750;75;28126;-47
2022/06/30 02:07:26;;;;;;;1.50;1.40;;;;;;;29.97;36.54;98639.36;1853170;75;28188;-49
2022/06/30 02:10:18;;;;;;;1.42;1.32;;;;;;;29.94;36.58;98637.19;1855050;76;28272;-49
2022/06/30 02:13:06;;;;;;;1.50;1.50;;;;;;;29.96;36.63;98631.37;1871729;76;28498;-47
2022/06/30 02:15:54;;;;;;;1.47;1.20;;;;;;;29.99;36.62;98632.95;1860071;74;31227;-48
2022/06/30 02:18:42;;;;;;;1.27;1.27;;;;;;;29.98;36.58;98636.03;1849451;74;28210;-51
2022/06/30 02:21:31;;;;;;;1.70;1.60;;;;;;;29.98;36.62;98638.25;1841499;75;28217;-48
2022/06/30 02:24:19;;;;;;;1.70;1.30;;;;;;;29.97;36.63;98642.69;1840181;77;28168;-49
2022/06/30 02:27:09;;;;;;;1.40;1.40;;;;;;;29.98;36.68;98627.73;1840041;75;28015;-48
2022/06/30 02:29:57;;;;;;;1.60;1.50;;;;;;;29.99;36.66;98629.38;1865643;74;28098;-49
2022/06/30 02:32:46;;;;;;;1.40;1.40;;;;;;;29.99;36.72;98630.18;1841754;74;28233;-47
2022/06/30 02:35:35;;;;;;;1.40;1.40;;;;;;;29.95;36.76;98634.69;1842623;74;28198;-47
2022/06/30 02:38:23;;;;;;;1.30;1.30;;;;;;;29.97;36.77;98642.69;1867229;74;28180;-47
2022/06/30 02:41:11;;;;;;;1.42;1.42;;;;;;;29.93;36.88;98640.27;1866166;74;28170;-47
2022/06/30 02:44:01;;;;;;;1.50;1.50;;;;;;;29.94;36.96;98640.55;1868642;76;28044;-48
2022/06/30 02:46:50;;;;;;;1.50;1.40;;;;;;;29.92;37.04;98646.37;1849527;75;28219;-46
2022/06/30 02:49:39;;;;;;;1.62;1.52;;;;;;;29.86;37.02;98653.69;1868420;76;28119;-48
2022/06/30 02:52:27;;;;;;;1.50;1.50;;;;;;;29.59;37.29;98658.55;1856668;77;28330;-46
2022/06/30 02:55:15;;;;;;;1.30;1.30;;;;;;;29.38;37.80;98669.66;1856828;77;28148;-48
2022/06/30 02:58:03;;;;;;;1.62;1.42;;;;;;;29.29;37.96;98675.60;1856741;77;28168;-49
2022/06/30 03:00:52;;;;;;;1.60;1.50;;;;;;;29.24;38.07;98688.12;1856739;77;28213;-47
2022/06/30 03:03:40;;;;;;;1.50;1.40;;;;;;;29.30;38.06;98694.66;1868615;76;28225;-47
2022/06/30 03:06:30;;;;;;;1.80;1.40;;;;;;;29.34;37.96;98699.84;1868755;76;28242;-48
2022/06/30 03:09:18;;;;;;;1.87;1.67;;;;;;;29.41;37.90;98714.69;1868530;76;28188;-48
2022/06/30 03:12:08;;;;;;;1.53;1.43;;;;;;;29.47;37.74;98715.45;1868486;76;28273;-48
2022/06/30 03:14:56;;;;;;;1.85;1.50;;;;;;;29.49;37.69;98716.80;1868478;76;28138;-45
2022/06/30 03:17:44;;;;;;;1.53;1.43;;;;;;;29.52;37.56;98716.77;1836671;77;28266;-47
2022/06/30 03:20:32;;;;;;;1.40;1.30;;;;;;;29.55;37.44;98717.53;1865360;76;28256;-50
2022/06/30 03:23:20;;;;;;;1.35;1.35;;;;;;;29.56;37.25;98710.34;1856853;77;28070;-46
2022/06/30 03:26:09;;;;;;;1.62;1.52;;;;;;;29.56;37.06;98717.81;1856607;77;28134;-50
2022/06/30 03:28:57;;;;;;;1.50;1.40;;;;;;;29.57;36.84;98716.70;1825237;78;32256;-50
2022/06/30 03:31:46;;;;;;;1.52;1.42;;;;;;;29.56;36.65;98727.50;1851563;77;28057;-45
2022/06/30 03:34:34;;;;;;;1.30;1.30;;;;;;;29.57;36.54;98719.47;1856529;77;28210;-47
2022/06/30 03:37:22;;;;;;;1.20;1.10;;;;;;;29.55;36.45;98713.38;1856748;77;28114;-48
2022/06/30 03:40:12;;;;;;;1.30;1.12;;;;;;;29.60;36.33;98719.67;1856575;77;28241;-49
2022/06/30 03:43:01;;;;;;;1.67;1.20;;;;;;;29.61;36.20;98715.80;1868711;76;28081;-52
2022/06/30 03:45:49;;;;;;;1.40;1.40;;;;;;;29.58;36.40;98711.41;1856757;77;28219;-49
2022/06/30 03:48:38;;;;;;;1.40;1.30;;;;;;;29.59;36.21;98705.59;1840349;77;28167;-48
2022/06/30 03:51:26;;;;;;;1.10;1.10;;;;;;;29.62;36.05;98709.12;1856834;76;28247;-47
2022/06/30 03:54:15;;;;;;;1.20;1.20;;;;;;;29.60;36.14;98729.92;1856605;77;28101;-46
2022/06/30 03:57:04;;;;;;;1.20;1.20;;;;;;;29.60;36.14;98729.92;1868615;76;28044;-49
2022/06/30 03:59:52;;;;;;;1.40;1.30;;;;;;;29.60;36.17;98734.90;1836727;77;28172;-51
2022/06/30 04:02:41;;;;;;;1.30;1.20;;;;;;;29.62;36.07;98731.83;1874364;74;28181;-46
2022/06/30 04:05:29;;;;;;;1.20;1.20;;;;;;;29.60;36.00;98728.53;1858148;74;28364;-50
2022/06/30 04:08:18;;;;;;;1.10;1.10;;;;;;;29.59;35.83;98733.27;1856494;77;28225;-48
2022/06/30 04:11:06;;;;;;;1.20;1.20;;;;;;;29.59;35.82;98731.06;1825951;78;28398;-51
2022/06/30 04:13:54;;;;;;;1.20;1.20;;;;;;;29.61;36.10;98737.11;1815670;78;28310;-48
2022/06/30 04:16:43;;;;;;;1.10;1.10;;;;;;;29.61;35.69;98741.27;1809404;79;28804;-51
2022/06/30 04:19:31;;;;;;;1.10;1.10;;;;;;;29.59;35.57;98740.19;1865675;76;28156;-47
2022/06/30 04:22:20;;;;;;;1.10;1.10;;;;;;;29.61;35.59;98745.42;1856923;76;28302;-49
2022/06/30 04:25:09;;;;;;;1.25;1.20;;;;;;;29.61;35.56;98745.42;1856734;77;28369;-48
2022/06/30 04:27:59;;;;;;;1.25;1.20;;;;;;;29.60;35.55;98743.20;1868463;76;28301;-49
2022/06/30 04:33:53;;;;;;;1.50;1.17;;;;;;;29.62;35.48;98747.88;1836602;77;28176;-49
2022/06/30 04:36:42;;;;;;;2.02;1.22;;;;;;;29.61;35.41;98737.11;1864964;76;28163;-48
2022/06/30 04:39:30;;;;;;;1.07;1.07;;;;;;;29.64;35.38;98730.98;1868509;76;28189;-47
2022/06/30 04:42:18;;;;;;;1.17;1.10;;;;;;;29.63;35.52;98744.00;1856642;77;28057;-51
2022/06/30 04:45:08;;;;;;;1.00;1.00;;;;;;;29.62;35.48;98742.34;1825213;78;28221;-47
2022/06/30 04:47:56;;;;;;;1.10;1.10;;;;;;;29.64;35.61;98745.63;1830938;77;28086;-49
2022/06/30 04:50:44;;;;;;;0.90;0.90;;;;;;;29.62;35.63;98742.34;1856620;77;28234;-49
2022/06/30 04:53:33;;;;;;;1.17;1.10;;;;;;;29.64;35.53;98740.67;1868349;76;28160;-48
2022/06/30 04:56:21;;;;;;;2.20;1.10;;;;;;;29.66;35.44;98738.42;1868374;76;28090;-49
2022/06/30 04:59:10;;;;;;;1.30;1.20;;;;;;;29.67;35.40;98738.12;1856676;77;28083;-48
2022/06/30 05:01:58;;;;;;;1.07;1.02;;;;;;;29.68;35.37;98741.16;1856554;77;28297;-47
2022/06/30 05:04:46;;;;;;;1.80;1.20;;;;;;;29.70;35.45;98745.83;1836571;77;28248;-49
2022/06/30 05:07:34;;;;;;;1.27;1.15;;;;;;;29.67;35.37;98739.50;1865624;76;28323;-50
2022/06/30 05:10:23;;;;;;;1.47;1.10;;;;;;;29.70;35.42;98739.47;1866896;76;28759;-52
2022/06/30 05:13:12;;;;;;;1.40;1.10;;;;;;;29.69;35.52;98733.10;1868688;76;28255;-50
2022/06/30 05:16:00;;;;;;;1.72;1.20;;;;;;;29.66;35.66;98733.72;1836792;77;28180;-50
2022/06/30 05:18:49;;;;;;;0.98;0.98;;;;;;;29.66;35.62;98724.59;1864492;76;28183;-49
2022/06/30 05:21:37;;;;;;;1.10;1.10;;;;;;;29.67;35.55;98727.05;1868658;76;28077;-47
2022/06/30 05:27:34;;;;;;;1.10;1.00;;;;;;;29.66;35.62;98728.73;1834021;77;28166;-49
2022/06/30 05:30:22;;;;;;;1.10;1.10;;;;;;;29.63;35.58;98726.01;1867876;76;28238;-49
2022/06/30 05:33:11;;;;;;;1.00;1.00;;;;;;;29.63;35.59;98723.23;1868289;75;28799;-48
2022/06/30 05:36:00;;;;;;;1.30;1.20;;;;;;;29.62;35.72;98720.20;1868538;76;28175;-52
2022/06/30 05:38:49;;;;;;;1.30;1.20;;;;;;;29.64;35.66;98725.45;1852848;76;28318;-51
2022/06/30 05:41:37;;;;;;;1.30;1.20;;;;;;;29.65;35.57;98713.24;1835523;77;28304;-47
2022/06/30 05:44:25;;;;;;;1.17;1.17;;;;;;;29.65;35.62;98712.69;1861046;76;28074;-48
2022/06/30 05:47:14;;;;;;;1.17;1.15;;;;;;;29.64;35.65;98706.88;1868750;76;28176;-52
2022/06/30 05:50:02;;;;;;;1.10;1.10;;;;;;;29.66;35.49;98712.96;1836651;77;28270;-50
2022/06/30 05:52:53;;;;;;;1.00;1.00;;;;;;;29.63;35.64;98716.31;1843745;76;28093;-48
2022/06/30 05:55:41;;;;;;;1.25;1.25;;;;;;;29.66;35.63;98717.67;1868420;76;28247;-52
2022/06/30 05:58:29;;;;;;;1.22;1.22;;;;;;;29.67;35.59;98722.89;1850104;76;28398;-49
2022/06/30 06:01:18;;;;;;;1.70;1.17;;;;;;;29.68;35.58;98724.55;1845721;75;28632;-52
2022/06/30 06:04:07;;;;;;;1.30;1.20;;;;;;;29.66;35.60;98724.03;1875248;74;28228;-51
2022/06/30 06:06:55;;;;;;;1.55;1.20;;;;;;;29.62;35.80;98729.05;1871746;76;28006;-52
2022/06/30 06:09:44;;;;;;;1.10;1.10;;;;;;;29.64;35.82;98730.98;1862232;76;28131;-52
2022/06/30 06:12:32;;;;;;;1.37;1.30;;;;;;;29.66;35.81;98725.97;1868373;76;28424;-53
2022/06/30 06:15:20;;;;;;;1.32;1.10;;;;;;;29.70;35.74;98723.69;1868389;76;28182;-50
2022/06/30 06:18:08;;;;;;;1.73;1.23;;;;;;;29.68;35.75;98712.65;1868409;76;28215;-50
2022/06/30 06:20:57;;;;;;;1.10;1.10;;;;;;;29.69;35.86;98712.34;1857264;76;28213;-51
2022/06/30 06:23:45;;;;;;;1.53;1.33;;;;;;;29.67;35.86;98710.44;1868350;76;28155;-48
2022/06/30 06:26:33;;;;;;;2.00;1.22;;;;;;;29.69;35.87;98719.26;1850942;76;28221;-49
2022/06/30 06:29:22;;;;;;;1.20;1.10;;;;;;;29.72;35.88;98720.05;1868556;76;28065;-52
2022/06/30 06:32:10;;;;;;;1.20;1.20;;;;;;;29.73;35.93;98713.41;1868584;76;28180;-54
2022/06/30 06:34:59;;;;;;;1.35;1.27;;;;;;;29.68;36.08;98716.25;1868532;76;28113;-50
2022/06/30 06:37:47;;;;;;;1.30;1.20;;;;;;;29.69;36.12;98710.95;1868602;76;28254;-52
2022/06/30 06:40:35;;;;;;;1.00;1.00;;;;;;;29.70;36.13;98705.69;1868459;76;28092;-51
2022/06/30 06:43:23;;;;;;;1.52;1.00;;;;;;;29.74;36.05;98705.34;1868599;76;28311;-51
2022/06/30 06:46:12;;;;;;;1.20;1.20;;;;;;;29.73;36.16;98698.18;1868163;76;28186;-49
2022/06/30 06:49:06;;;;;;;1.25;1.10;;;;;;;29.74;36.54;98692.89;1868289;76;28069;-54
2022/06/30 06:51:55;;;;;;;1.27;1.17;;;;;;;29.75;36.75;98691.78;1836175;77;28237;-47
2022/06/30 06:54:43;;;;;;;2.92;1.47;;;;;;;29.74;36.69;98690.67;1856995;76;28382;-48
2022/06/30 06:57:37;;;;;;;1.60;1.10;;;;;;;29.74;36.71;98690.67;1859448;76;28234;-49
2022/06/30 07:00:25;;;;;;;1.30;1.12;;;;;;;29.76;36.64;98683.75;1868305;76;28120;-50
2022/06/30 07:03:14;;;;;;;1.42;1.32;;;;;;;29.75;36.65;98686.23;1851681;76;28343;-53
2022/06/30 07:06:03;;;;;;;1.70;1.30;;;;;;;29.75;36.68;98680.70;1830687;78;28262;-52
2022/06/30 07:08:51;;;;;;;2.27;1.00;;;;;;;29.75;36.70;98672.95;1868611;76;28074;-49
2022/06/30 07:11:39;;;;;;;1.60;1.10;;;;;;;29.75;36.70;98672.40;1868545;76;28572;-51
2022/06/30 07:14:28;;;;;;;1.20;1.10;;;;;;;29.75;36.71;98665.48;1838302;77;28330;-52
2022/06/30 07:17:17;;;;;;;1.05;1.05;;;;;;;29.76;36.74;98665.75;1874708;76;28112;-53
2022/06/30 07:20:07;;;;;;;2.50;1.17;;;;;;;29.77;36.76;98661.88;1878017;76;28230;-49
2022/06/30 07:22:55;;;;;;;1.07;1.07;;;;;;;29.79;36.75;98654.63;1877951;76;28250;-54
2022/06/30 07:25:43;;;;;;;2.20;1.12;;;;;;;29.82;36.78;98655.42;1845688;77;28278;-50
2022/06/30 07:28:32;;;;;;;1.20;1.10;;;;;;;29.76;36.72;98649.14;1866934;76;28336;-51
2022/06/30 07:31:20;;;;;;;1.15;1.15;;;;;;;29.81;36.74;98651.83;1866604;76;28300;-50
2022/06/30 07:34:09;;;;;;;1.30;1.20;;;;;;;29.81;36.75;98650.44;1878046;76;28093;-52
2022/06/30 07:36:57;;;;;;;1.10;1.10;;;;;;;29.83;36.80;98641.27;1877624;76;28673;-53
2022/06/30 07:39:46;;;;;;;1.50;1.30;;;;;;;29.81;36.80;98630.23;1874221;76;28054;-52
2022/06/30 07:42:35;;;;;;;1.20;1.10;;;;;;;29.83;36.78;98633.52;1844862;77;28376;-49
2022/06/30 07:45:24;;;;;;;1.52;1.15;;;;;;;29.82;36.88;98634.10;1845460;77;28234;-53
2022/06/30 07:48:12;;;;;;;1.40;1.30;;;;;;;29.79;36.89;98617.26;1874721;76;28237;-49
2022/06/30 07:51:00;;;;;;;1.10;1.10;;;;;;;29.82;36.90;98626.35;1878044;76;33059;-51
2022/06/30 07:53:49;;;;;;;1.52;1.27;;;;;;;29.84;36.88;98621.33;1878011;76;28179;-55
2022/06/30 07:56:38;;;;;;;1.20;1.15;;;;;;;29.85;36.91;98622.98;1857706;76;28281;-52
2022/06/30 07:59:28;;;;;;;1.30;1.20;;;;;;;29.83;36.94;98610.81;1877702;76;28153;-51
2022/06/30 08:02:16;;;;;;;1.00;1.00;;;;;;;29.84;37.04;98611.08;1878288;74;28261;-50
2022/06/30 08:05:05;;;;;;;1.00;1.00;;;;;;;29.86;37.12;98611.59;1879427;76;28136;-52
2022/06/30 08:07:54;;;;;;;2.20;1.20;;;;;;;29.87;37.23;98607.69;1858372;76;28045;-48
2022/06/30 08:10:42;;;;;;;1.00;1.00;;;;;;;29.88;37.43;98612.11;1877998;76;28225;-49
2022/06/30 08:13:31;;;;;;;1.17;1.17;;;;;;;29.85;37.51;98609.94;1878104;76;28034;-49
2022/06/30 08:16:19;;;;;;;1.37;1.05;;;;;;;29.86;37.41;98603.84;1860700;76;28328;-53
2022/06/30 08:19:07;;;;;;;1.25;1.15;;;;;;;29.86;37.47;98598.30;1845594;77;29037;-48
2022/06/30 08:21:56;;;;;;;1.15;1.15;;;;;;;29.83;37.53;98584.50;1872350;76;28223;-53
2022/06/30 08:24:44;;;;;;;0.93;0.93;;;;;;;29.84;37.57;98581.18;1877906;76;28034;-53
2022/06/30 08:27:32;;;;;;;1.10;1.10;;;;;;;29.87;37.59;98579.20;1878030;76;28151;-52
2022/06/30 08:30:23;;;;;;;2.40;1.25;;;;;;;29.86;37.61;98579.75;1878001;76;28070;-52
2022/06/30 08:33:11;;;;;;;1.20;1.10;;;;;;;29.85;37.60;98585.02;1877996;76;28247;-54
2022/06/30 08:36:00;;;;;;;1.10;1.00;;;;;;;29.84;37.52;98583.95;1878126;76;28175;-53
2022/06/30 08:38:48;;;;;;;1.30;1.20;;;;;;;29.86;37.50;98582.52;1843515;77;28171;-48
2022/06/30 08:44:43;;;;;;;1.50;1.12;;;;;;;29.82;37.58;98569.03;1878015;76;33244;-54
2022/06/30 08:47:32;;;;;;;1.20;1.10;;;;;;;29.83;37.54;98572.05;1878177;76;28547;-51
2022/06/30 08:50:21;;;;;;;1.10;1.10;;;;;;;29.85;37.51;98574.53;1878160;76;28034;-52
2022/06/30 08:53:10;;;;;;;1.02;1.02;;;;;;;29.86;37.49;98567.84;1846373;77;28305;-51
2022/06/30 08:56:00;;;;;;;1.57;1.25;;;;;;;29.86;37.43;98560.37;1837242;77;28241;-52
2022/06/30 08:58:51;;;;;;;1.80;1.10;;;;;;;29.89;37.43;98565.30;1817151;78;28326;-52
2022/06/30 09:01:40;;;;;;;1.17;1.10;;;;;;;29.91;37.38;98554.74;1827054;77;28176;-52
2022/06/30 09:04:30;;;;;;;1.27;1.17;;;;;;;29.89;37.42;98552.84;1808227;79;28340;-52
2022/06/30 09:07:19;;;;;;;1.00;1.00;;;;;;;29.89;37.41;98540.95;1808384;79;28359;-53
2022/06/30 09:10:08;;;;;;;1.98;1.05;;;;;;;29.90;37.43;98539.24;1803475;78;28365;-50
2022/06/30 09:13:02;;;;;;;1.17;1.07;;;;;;;29.92;37.39;98536.19;1775064;80;28516;-54
2022/06/30 09:15:50;;;;;;;1.57;1.30;;;;;;;29.94;37.38;98539.47;1811428;78;28369;-52
2022/06/30 09:18:39;;;;;;;1.12;1.10;;;;;;;29.94;37.47;98540.85;1845991;77;28317;-52
2022/06/30 09:21:27;;;;;;;1.10;1.10;;;;;;;29.93;37.48;98540.02;1842535;77;28269;-48
2022/06/30 09:24:25;;;;;;;1.10;1.00;;;;;;;29.84;37.71;98533.55;1795978;78;28328;-52
2022/06/30 09:27:23;;;;;;;1.17;1.07;;;;;;;29.84;37.71;98533.55;1791200;78;28318;-51
2022/06/30 09:30:15;;;;;;;1.00;1.00;;;;;;;29.90;37.62;98539.24;1814109;78;28231;-53
2022/06/30 09:33:08;;;;;;;1.00;1.00;;;;;;;29.90;37.60;98543.95;1842497;77;28245;-49
2022/06/30 09:35:56;;;;;;;1.00;1.00;;;;;;;29.85;37.66;98542.10;1815943;78;28280;-51
2022/06/30 09:39:02;;;;;;;1.00;1.00;;;;;;;29.86;37.73;98540.98;1824468;77;28240;-50
2022/06/30 09:41:52;;;;;;;1.10;1.10;;;;;;;29.91;37.66;98542.28;1727207;81;28597;-49
2022/06/30 09:44:41;;;;;;;1.67;1.02;;;;;;;29.91;37.69;98542.28;1871724;76;28038;-51
2022/06/30 09:47:30;;;;;;;1.10;1.00;;;;;;;29.94;37.68;98533.93;1877971;76;28200;-54
2022/06/30 09:50:19;;;;;;;1.32;1.22;;;;;;;29.93;37.65;98532.27;1878240;76;28222;-51
2022/06/30 09:53:10;;;;;;;1.10;1.10;;;;;;;29.92;37.68;98526.50;1878121;76;28234;-49
2022/06/30 09:56:14;;;;;;;1.10;1.10;;;;;;;29.92;37.74;98523.14;1878189;76;28046;-51
2022/06/30 09:59:07;;;;;;;1.22;1.12;;;;;;;29.92;37.76;98516.22;1853324;76;35450;-50
2022/06/30 10:01:56;;;;;;;1.10;1.10;;;;;;;29.89;37.82;98523.77;1864874;76;28201;-51
2022/06/30 10:04:55;;;;;;;1.20;1.10;;;;;;;29.91;37.88;98520.69;1843716;77;28641;-53
2022/06/30 10:07:45;;;;;;;1.25;1.15;;;;;;;29.91;37.87;98520.13;1877410;76;28143;-51
2022/06/30 10:10:34;;;;;;;1.00;1.00;;;;;;;29.92;37.92;98516.80;1878115;76;28186;-51
2022/06/30 10:13:23;;;;;;;1.05;1.05;;;;;;;29.92;37.89;98510.67;1878070;76;28215;-50
2022/06/30 10:16:13;;;;;;;0.93;0.93;;;;;;;29.94;37.85;98504.85;1845621;77;28208;-54
2022/06/30 10:19:02;;;;;;;1.00;1.00;;;;;;;29.95;37.87;98498.17;1868878;76;28248;-49
2022/06/30 10:21:51;;;;;;;1.10;1.10;;;;;;;29.94;37.86;98495.95;1868757;76;28140;-51
2022/06/30 10:24:46;;;;;;;0.90;0.90;;;;;;;29.96;37.91;98505.36;1868910;76;28137;-53
2022/06/30 10:27:31;;;;;;;1.00;1.00;;;;;;;29.97;37.85;98505.59;1836719;77;28287;-52
2022/06/30 10:30:23;;;;;;;1.20;1.10;;;;;;;29.97;37.88;98500.06;1865519;76;28253;-48
2022/06/30 10:33:24;;;;;;;1.60;1.07;;;;;;;29.99;37.75;98495.86;1844150;76;28387;-51
2022/06/30 10:36:15;;;;;;;1.20;0.93;;;;;;;30.00;37.80;98498.07;1857625;76;28231;-53
2022/06/30 10:39:12;;;;;;;1.00;0.90;;;;;;;29.97;37.83;98489.81;1868801;76;28127;-53
2022/06/30 10:42:00;;;;;;;1.10;1.10;;;;;;;29.95;37.83;98489.86;1868721;76;28162;-51
2022/06/30 10:44:48;;;;;;;1.10;1.00;;;;;;;29.98;37.78;98490.64;1869149;76;28242;-54
2022/06/30 10:47:40;;;;;;;1.00;1.00;;;;;;;29.98;37.77;98488.70;1869082;76;28098;-52
2022/06/30 10:50:34;;;;;;;0.98;0.88;;;;;;;29.98;37.81;98485.93;1868908;76;28050;-53
2022/06/30 10:53:40;;;;;;;1.00;1.00;;;;;;;29.97;37.78;98480.67;1832082;77;28221;-53
2022/06/30 10:56:53;;;;;;;1.00;1.00;;;;;;;29.98;37.76;98475.41;1835163;77;28270;-53
2022/06/30 10:59:42;;;;;;;0.90;0.90;;;;;;;29.96;37.80;98477.11;1794477;79;30130;-50
2022/06/30 11:02:31;;;;;;;0.90;0.90;;;;;;;29.93;37.85;98476.89;1803382;78;28298;-52
2022/06/30 11:05:25;;;;;;;0.90;0.90;;;;;;;29.96;37.85;98476.28;1832135;76;28237;-49
2022/06/30 11:08:48;;;;;;;1.00;1.00;;;;;;;29.96;37.84;98474.34;1836479;77;28200;-54
2022/06/30 11:11:39;;;;;;;1.00;1.00;;;;;;;29.99;37.79;98472.31;1836573;77;28246;-52
2022/06/30 11:14:28;;;;;;;1.00;1.00;;;;;;;29.92;37.87;98460.83;1850681;76;28234;-54
2022/06/30 11:17:19;;;;;;;1.20;1.00;;;;;;;29.94;37.83;98460.55;1868836;76;28210;-49
2022/06/30 11:20:14;;;;;;;1.00;1.00;;;;;;;29.94;37.83;98464.11;1840871;76;28181;-50
2022/06/30 11:23:04;;;;;;;1.12;1.10;;;;;;;29.97;37.84;98466.27;1834101;77;28294;-51
2022/06/30 11:29:00;;;;;;;1.20;1.10;;;;;;;29.98;37.77;98467.92;1815190;77;28210;-52
2022/06/30 11:31:49;;;;;;;0.93;0.93;;;;;;;29.99;37.76;98464.59;1832529;77;28239;-51
2022/06/30 11:34:40;;;;;;;0.88;0.88;;;;;;;30.00;37.74;98453.77;1831983;77;28264;-51
2022/06/30 11:37:30;;;;;;;1.12;1.00;;;;;;;30.03;37.69;98462.28;1830630;78;28109;-51
2022/06/30 11:40:18;;;;;;;0.90;0.90;;;;;;;30.00;37.70;98460.13;1812923;77;28186;-52
2022/06/30 11:43:23;;;;;;;1.00;1.00;;;;;;;30.04;37.60;98458.93;1832226;77;28311;-52
2022/06/30 11:46:11;;;;;;;1.10;1.10;;;;;;;30.05;37.56;98461.97;1832470;77;28256;-51
2022/06/30 11:49:03;;;;;;;1.17;1.02;;;;;;;30.03;37.52;98467.83;1832924;77;28154;-53
2022/06/30 11:51:51;;;;;;;1.00;1.00;;;;;;;30.01;37.53;98459.57;1816461;77;28239;-50
2022/06/30 11:54:49;;;;;;;0.90;0.90;;;;;;;29.99;37.54;98455.70;1832520;77;28183;-50
2022/06/30 11:57:40;;;;;;;0.97;0.97;;;;;;;29.98;37.57;98445.77;1835351;77;28345;-49
2022/06/30 12:00:30;;;;;;;1.00;1.00;;;;;;;29.98;37.57;98446.33;1834113;77;28391;-50
2022/06/30 12:03:19;;;;;;;1.15;0.90;;;;;;;30.03;37.58;98455.36;1833646;77;27780;-53
2022/06/30 12:06:07;;;;;;;0.90;0.90;;;;;;;30.04;37.50;98457.55;1834452;77;28169;-52
2022/06/30 12:08:56;;;;;;;0.98;0.98;;;;;;;30.04;37.50;98447.30;1824197;78;28214;-52
2022/06/30 12:11:46;;;;;;;0.90;0.90;;;;;;;30.06;37.46;98456.11;1780469;80;28370;-54
2022/06/30 12:14:38;;;;;;;1.55;1.00;;;;;;;30.06;37.43;98456.67;1816816;77;28213;-53
2022/06/30 12:17:32;;;;;;;1.10;1.10;;;;;;;30.05;37.40;98450.33;1832483;77;28287;-50
2022/06/30 12:20:23;;;;;;;1.00;1.00;;;;;;;30.08;37.37;98444.16;1850716;76;28263;-52
2022/06/30 12:23:12;;;;;;;0.90;0.90;;;;;;;30.13;37.34;98456.28;1870070;76;28096;-52
2022/06/30 12:26:01;;;;;;;1.00;1.00;;;;;;;30.08;37.30;98455.23;1869361;75;28214;-50
2022/06/30 12:28:55;;;;;;;0.90;0.90;;;;;;;30.11;37.28;98457.95;1868357;76;28137;-49
2022/06/30 12:31:42;;;;;;;1.12;1.02;;;;;;;30.13;37.31;98458.45;1867416;76;28209;-49
2022/06/30 12:34:32;;;;;;;0.80;0.80;;;;;;;30.12;37.30;98454.06;1870294;76;28220;-51
2022/06/30 12:37:32;;;;;;;1.00;1.00;;;;;;;30.15;37.29;98463.15;1835363;77;28271;-51
2022/06/30 12:40:22;;;;;;;0.90;0.90;;;;;;;30.16;37.22;98452.86;1854862;75;28136;-52
2022/06/30 12:43:10;;;;;;;1.10;1.10;;;;;;;30.15;37.28;98449.86;1869695;75;28622;-51
2022/06/30 12:46:00;;;;;;;0.88;0.88;;;;;;;30.15;37.26;98449.86;1868121;75;28207;-49
2022/06/30 12:48:56;;;;;;;0.90;0.90;;;;;;;30.13;37.22;98445.99;1868854;76;28155;-54
2022/06/30 12:51:44;;;;;;;0.80;0.80;;;;;;;30.13;37.23;98447.97;1848176;76;28104;-52
2022/06/30 12:54:33;;;;;;;1.00;1.00;;;;;;;30.11;37.41;98447.45;1866570;75;28190;-52
2022/06/30 12:57:22;;;;;;;1.10;0.90;;;;;;;30.11;37.39;98457.16;1870281;76;28031;-51
2022/06/30 13:00:12;;;;;;;0.90;0.90;;;;;;;30.14;37.43;98456.52;1866538;76;28292;-53
2022/06/30 13:03:00;;;;;;;0.82;0.82;;;;;;;30.15;37.40;98463.71;1866363;76;28171;-54
2022/06/30 13:05:49;;;;;;;0.90;0.90;;;;;;;30.14;37.40;98467.59;1870178;76;28147;-52
2022/06/30 13:08:37;;;;;;;0.80;0.80;;;;;;;30.15;37.41;98463.71;1870297;76;28005;-50
2022/06/30 13:11:28;;;;;;;0.90;0.90;;;;;;;30.17;37.44;98465.60;1872172;76;28120;-53
2022/06/30 13:14:19;;;;;;;0.90;0.90;;;;;;;30.16;37.40;98469.48;1868414;76;28061;-53
2022/06/30 13:17:09;;;;;;;1.00;1.00;;;;;;;30.16;37.43;98479.19;1872225;76;28073;-50
2022/06/30 13:19:57;;;;;;;0.93;0.93;;;;;;;30.16;37.39;98486.11;1868486;75;28134;-49
2022/06/30 13:22:46;;;;;;;0.90;0.90;;;;;;;30.15;37.44;98479.77;1842736;77;28227;-51
2022/06/30 13:25:34;;;;;;;0.90;0.90;;;;;;;30.17;37.38;98476.68;1865006;76;28187;-51
2022/06/30 13:28:23;;;;;;;0.90;0.90;;;;;;;30.19;37.42;98461.95;1864884;76;28167;-51
2022/06/30 13:31:12;;;;;;;1.37;1.00;;;;;;;30.18;37.33;98456.17;1850985;77;28199;-51
2022/06/30 13:34:06;;;;;;;0.90;0.90;;;;;;;30.20;37.27;98450.55;1844930;77;28467;-50
2022/06/30 13:36:53;;;;;;;0.72;0.72;;;;;;;30.22;37.29;98455.80;1865286;76;28201;-52
2022/06/30 13:39:42;;;;;;;0.90;0.90;;;;;;;30.20;37.28;98445.60;1867057;76;28172;-47